Time;durP1;ratioP1;P1;durP2;ratioP2;P2;SDS_P1;SDS_P2;PMS_P1;PMS_P2;Temp;Humidity;BMP_temperature;BMP_pressure;BME280_temperature;BME280_humidity;BME280_pressure;Samples;Min_cycle;Max_cycle;Signal;HPM_P1;HPM_P2
2022/11/13 00:01:31;;;;;;;2.47;1.67;;;18.50;72.80;;;;;;6018308;23;20154;-83
2022/11/13 00:04:11;;;;;;;1.75;1.40;;;18.50;73.00;;;;;;6018590;23;20154;-83
2022/11/13 00:06:59;;;;;;;2.47;1.63;;;18.50;73.10;;;;;;6042322;23;20154;-83
2022/11/13 00:09:30;;;;;;;1.90;1.60;;;18.50;72.90;;;;;;6042457;23;20696;-83
2022/11/13 00:12:18;;;;;;;1.92;1.48;;;18.50;72.80;;;;;;6018311;23;20172;-83
2022/11/13 00:14:54;;;;;;;2.70;1.70;;;18.50;73.00;;;;;;6018358;23;20620;-83
2022/11/13 00:17:25;;;;;;;2.08;1.60;;;18.40;72.80;;;;;;6018008;23;20150;-83
2022/11/13 00:19:57;;;;;;;2.55;1.60;;;18.50;72.80;;;;;;6083326;23;20243;-82
2022/11/13 00:22:31;;;;;;;2.33;1.50;;;18.50;73.00;;;;;;6033124;23;20203;-85
2022/11/13 00:25:04;;;;;;;2.75;1.50;;;18.40;72.70;;;;;;6089440;23;20446;-85
2022/11/13 00:27:41;;;;;;;2.53;1.67;;;18.50;72.90;;;;;;6109361;23;20156;-83
2022/11/13 00:30:10;;;;;;;2.22;1.67;;;18.50;73.10;;;;;;6084970;23;20187;-83
2022/11/13 00:32:44;;;;;;;2.20;1.42;;;18.50;73.70;;;;;;6136095;23;20139;-82
2022/11/13 00:35:31;;;;;;;2.95;1.40;;;18.50;72.90;;;;;;6111079;23;20178;-83
2022/11/13 00:38:01;;;;;;;3.15;1.45;;;18.50;73.00;;;;;;6110157;23;20159;-83
2022/11/13 00:40:35;;;;;;;4.68;1.83;;;18.50;73.00;;;;;;6085816;23;20216;-82
2022/11/13 00:43:15;;;;;;;2.00;1.50;;;18.50;73.00;;;;;;6085315;23;20170;-82
2022/11/13 00:45:50;;;;;;;2.33;1.58;;;18.50;73.00;;;;;;6109698;23;20152;-83
2022/11/13 00:48:31;;;;;;;2.08;1.20;;;18.50;73.80;;;;;;6109037;23;20218;-84
2022/11/13 00:51:04;;;;;;;2.25;1.52;;;18.50;73.00;;;;;;6085240;23;20177;-85
2022/11/13 00:53:44;;;;;;;2.53;1.45;;;18.40;72.70;;;;;;6085579;23;20151;-82
2022/11/13 00:56:16;;;;;;;2.90;1.70;;;18.50;72.90;;;;;;6084622;23;20154;-82
2022/11/13 00:59:00;;;;;;;2.42;1.60;;;18.40;73.20;;;;;;6212341;23;20158;-82
2022/11/13 01:01:34;;;;;;;1.63;1.50;;;18.40;72.90;;;;;;6212142;23;20151;-82
2022/11/13 01:04:07;;;;;;;2.35;1.70;;;18.40;72.80;;;;;;6085815;23;20156;-83
2022/11/13 01:06:39;;;;;;;3.60;1.50;;;18.40;73.10;;;;;;6085624;23;20159;-84
2022/11/13 01:09:17;;;;;;;1.98;1.63;;;18.50;73.10;;;;;;6159161;23;20167;-83
2022/11/13 01:11:46;;;;;;;1.75;1.50;;;18.40;73.00;;;;;;6133549;23;20166;-85
2022/11/13 01:14:26;;;;;;;2.05;1.50;;;18.40;73.00;;;;;;6211518;23;20151;-83
2022/11/13 01:17:06;;;;;;;3.47;1.75;;;18.40;73.10;;;;;;6110211;23;20151;-85
2022/11/13 01:19:58;;;;;;;2.10;1.40;;;18.40;72.80;;;;;;6109651;23;20159;-82
2022/11/13 01:22:27;;;;;;;2.67;1.58;;;18.40;73.10;;;;;;6111662;23;20214;-85
2022/11/13 01:25:09;;;;;;;1.90;1.65;;;18.40;73.20;;;;;;6134287;23;20140;-83
2022/11/13 01:27:40;;;;;;;2.72;1.85;;;18.40;73.20;;;;;;6109121;23;20201;-83
2022/11/13 01:30:24;;;;;;;2.22;1.63;;;18.40;73.00;;;;;;6108982;23;20317;-83
2022/11/13 01:33:17;;;;;;;2.20;1.73;;;18.40;73.20;;;;;;6210774;23;20173;-84
2022/11/13 01:35:46;;;;;;;2.40;1.48;;;18.40;73.10;;;;;;6137455;23;20219;-83
2022/11/13 01:38:33;;;;;;;1.90;1.45;;;18.40;73.10;;;;;;6159883;23;20132;-82
2022/11/13 01:41:07;;;;;;;2.08;1.58;;;18.40;72.80;;;;;;6085538;23;20184;-82
2022/11/13 01:43:39;;;;;;;3.05;1.48;;;18.40;73.30;;;;;;6086834;23;20197;-85
2022/11/13 01:46:43;;;;;;;1.90;1.40;;;18.40;73.00;;;;;;6158671;23;20138;-82
2022/11/13 01:49:33;;;;;;;2.05;1.50;;;18.40;73.00;;;;;;6112160;23;20194;-83
2022/11/13 01:52:09;;;;;;;3.08;1.70;;;18.30;73.20;;;;;;6129488;23;20635;-85
2022/11/13 01:54:47;;;;;;;2.47;1.55;;;18.40;73.50;;;;;;6202406;23;20243;-84
2022/11/13 01:57:31;;;;;;;2.20;1.52;;;18.30;73.20;;;;;;6178833;23;20171;-84
2022/11/13 02:00:08;;;;;;;1.70;1.30;;;18.30;73.50;;;;;;6181147;23;20230;-84
2022/11/13 02:03:24;;;;;;;2.70;1.60;;;18.30;73.20;;;;;;6206165;23;20487;-85
2022/11/13 02:06:42;;;;;;;2.88;1.40;;;18.30;73.10;;;;;;6129493;23;20163;-83
2022/11/13 02:09:35;;;;;;;1.80;1.50;;;18.30;73.00;;;;;;6104655;23;20222;-83
2022/11/13 02:12:31;;;;;;;2.53;1.80;;;18.30;73.50;;;;;;6207959;23;20172;-84
2022/11/13 02:14:57;;;;;;;3.03;1.85;;;18.30;73.50;;;;;;6231711;23;20574;-84
2022/11/13 02:17:49;;;;;;;2.45;1.67;;;18.30;73.60;;;;;;6206306;23;20160;-84
2022/11/13 02:20:45;;;;;;;2.00;1.60;;;18.30;73.50;;;;;;6079435;23;20259;-83
2022/11/13 02:23:33;;;;;;;2.60;1.58;;;18.30;73.10;;;;;;6231820;23;20622;-82
2022/11/13 02:26:01;;;;;;;1.88;1.63;;;18.20;74.30;;;;;;6156861;23;20288;-83
2022/11/13 02:28:34;;;;;;;2.70;1.60;;;18.30;73.40;;;;;;6020773;23;20197;-83
2022/11/13 02:31:36;;;;;;;2.28;1.40;;;18.30;73.40;;;;;;6023494;23;20161;-83
2022/11/13 02:34:08;;;;;;;1.92;1.50;;;18.30;73.50;;;;;;6018924;23;20152;-83
2022/11/13 02:36:40;;;;;;;1.80;1.33;;;18.30;73.20;;;;;;6046608;23;20588;-82
2022/11/13 02:39:29;;;;;;;4.13;1.50;;;18.20;73.80;;;;;;6046927;23;20165;-84
2022/11/13 02:42:14;;;;;;;3.60;1.63;;;18.30;73.50;;;;;;6070845;23;20154;-84
2022/11/13 02:44:47;;;;;;;1.95;1.35;;;18.30;73.40;;;;;;6046607;23;20130;-83
2022/11/13 02:47:18;;;;;;;2.95;1.77;;;18.30;73.40;;;;;;6022689;23;20153;-84
2022/11/13 02:49:47;;;;;;;2.55;1.67;;;18.30;73.10;;;;;;6046764;23;20624;-83
2022/11/13 02:52:15;;;;;;;3.10;1.42;;;18.30;73.10;;;;;;6046361;23;20154;-83
2022/11/13 02:54:52;;;;;;;2.15;1.35;;;18.30;73.50;;;;;;6046095;23;20180;-83
2022/11/13 02:57:26;;;;;;;2.35;1.63;;;18.30;73.60;;;;;;6074306;23;20160;-83
2022/11/13 02:59:59;;;;;;;1.90;1.35;;;18.30;72.90;;;;;;6103932;23;20164;-85
2022/11/13 03:02:38;;;;;;;1.90;1.40;;;18.30;73.10;;;;;;6080054;23;20220;-84
2022/11/13 03:05:13;;;;;;;3.15;1.70;;;18.30;73.40;;;;;;6080363;23;20151;-82
2022/11/13 03:08:01;;;;;;;2.67;1.40;;;18.20;73.40;;;;;;6079762;23;20190;-83
2022/11/13 03:10:36;;;;;;;3.75;1.63;;;18.30;73.50;;;;;;6103015;23;20251;-83
2022/11/13 03:13:06;;;;;;;1.80;1.40;;;18.30;73.10;;;;;;6080727;23;20212;-81
2022/11/13 03:16:13;;;;;;;1.48;1.35;;;18.30;73.20;;;;;;6054159;23;20627;-83
2022/11/13 03:18:51;;;;;;;2.17;1.60;;;18.30;73.50;;;;;;6127940;23;20164;-82
2022/11/13 03:21:17;;;;;;;2.22;1.60;;;18.30;73.80;;;;;;6053720;23;20207;-82
2022/11/13 03:23:47;;;;;;;2.33;1.48;;;18.30;73.60;;;;;;6126987;23;20449;-85
2022/11/13 03:26:30;;;;;;;2.58;1.60;;;18.20;74.30;;;;;;6103378;23;20260;-84
2022/11/13 03:29:32;;;;;;;2.17;1.80;;;18.20;73.30;;;;;;6102605;23;20184;-82
2022/11/13 03:32:08;;;;;;;2.53;1.63;;;18.30;73.80;;;;;;6079132;23;20159;-82
2022/11/13 03:34:38;;;;;;;2.35;1.60;;;18.20;73.90;;;;;;6078455;23;20179;-82
2022/11/13 03:37:04;;;;;;;2.05;1.27;;;18.20;73.90;;;;;;6078938;23;20148;-82
2022/11/13 03:39:49;;;;;;;2.38;1.50;;;18.20;74.00;;;;;;6127703;23;20148;-82
2022/11/13 03:42:36;;;;;;;2.25;1.70;;;18.20;73.80;;;;;;6061536;23;20151;-83
2022/11/13 03:45:18;;;;;;;2.42;1.40;;;18.20;73.80;;;;;;6082793;23;20495;-83
2022/11/13 03:47:44;;;;;;;1.90;1.58;;;18.20;73.60;;;;;;6106674;23;20588;-83
2022/11/13 03:50:29;;;;;;;1.98;1.45;;;18.20;73.80;;;;;;6107742;23;20604;-84
2022/11/13 03:53:13;;;;;;;1.58;1.33;;;18.20;73.90;;;;;;6109005;23;20148;-82
2022/11/13 03:55:43;;;;;;;1.70;1.30;;;18.20;73.50;;;;;;6082138;23;20184;-82
2022/11/13 03:58:26;;;;;;;3.33;1.45;;;18.20;74.00;;;;;;6107084;23;20152;-81
2022/11/13 04:01:00;;;;;;;2.08;1.60;;;18.20;73.50;;;;;;6058066;23;20182;-84
2022/11/13 04:03:29;;;;;;;2.90;1.58;;;18.20;73.90;;;;;;6056815;23;20149;-84
2022/11/13 04:05:59;;;;;;;1.83;1.25;;;18.20;73.80;;;;;;6057564;23;20160;-83
2022/11/13 04:08:42;;;;;;;2.67;1.50;;;18.20;74.00;;;;;;6079521;23;20179;-84
2022/11/13 04:11:09;;;;;;;2.15;1.40;;;18.20;73.90;;;;;;6082840;23;20178;-83
2022/11/13 04:16:59;;;;;;;1.77;1.35;;;18.10;73.60;;;;;;6128398;23;20196;-83
2022/11/13 04:19:38;;;;;;;1.77;1.40;;;18.10;73.70;;;;;;6104619;23;20198;-83
2022/11/13 04:22:07;;;;;;;2.45;1.50;;;18.20;73.50;;;;;;6075087;23;20636;-84
2022/11/13 04:24:53;;;;;;;2.03;1.52;;;18.20;73.80;;;;;;6050980;23;20168;-83
2022/11/13 04:27:21;;;;;;;3.53;1.38;;;18.20;73.60;;;;;;6005020;23;20157;-83
2022/11/13 04:29:47;;;;;;;2.42;1.38;;;18.20;73.60;;;;;;6070796;23;20207;-83
2022/11/13 04:32:19;;;;;;;2.30;1.60;;;18.20;74.10;;;;;;6203054;23;20133;-83
2022/11/13 04:34:52;;;;;;;2.15;1.55;;;18.10;73.40;;;;;;6100053;23;20134;-85
2022/11/13 04:37:22;;;;;;;2.13;1.50;;;18.20;74.00;;;;;;6075784;23;20481;-84
2022/11/13 04:39:53;;;;;;;3.17;1.58;;;18.10;73.60;;;;;;6075562;23;20167;-83
2022/11/13 04:45:06;;;;;;;2.20;1.50;;;18.20;73.60;;;;;;6100773;23;20137;-83
2022/11/13 04:47:35;;;;;;;2.42;1.48;;;18.10;73.50;;;;;;6075474;23;20160;-83
2022/11/13 04:50:04;;;;;;;2.22;1.52;;;18.20;74.00;;;;;;6099308;23;20192;-83
2022/11/13 04:52:30;;;;;;;2.58;1.60;;;18.20;74.00;;;;;;6202157;23;20565;-83
2022/11/13 04:54:59;;;;;;;1.67;1.42;;;18.20;74.10;;;;;;6099802;23;20133;-83
2022/11/13 04:57:40;;;;;;;1.70;1.33;;;18.20;73.80;;;;;;6074912;23;20156;-83
2022/11/13 05:00:11;;;;;;;3.25;1.50;;;18.10;74.00;;;;;;6026799;23;20152;-83
2022/11/13 05:03:15;;;;;;;1.70;1.42;;;18.20;74.10;;;;;;6027590;23;20239;-85
2022/11/13 05:06:05;;;;;;;2.50;1.60;;;18.10;74.10;;;;;;6026959;23;20211;-83
2022/11/13 05:08:46;;;;;;;2.15;1.40;;;18.10;73.60;;;;;;6027937;23;20189;-83
2022/11/13 05:11:17;;;;;;;2.67;1.60;;;18.10;74.10;;;;;;6029138;23;20497;-83
2022/11/13 05:13:49;;;;;;;1.48;1.33;;;18.10;74.10;;;;;;6027494;23;20198;-84
2022/11/13 05:16:53;;;;;;;1.90;1.38;;;18.10;74.00;;;;;;6027189;23;20164;-85
2022/11/13 05:19:27;;;;;;;2.30;1.60;;;18.20;73.50;;;;;;6099650;23;20255;-83
2022/11/13 05:22:42;;;;;;;1.92;1.60;;;18.10;73.90;;;;;;6018673;23;20196;-84
2022/11/13 05:25:16;;;;;;;2.53;1.60;;;18.10;73.90;;;;;;6128583;23;20186;-84
2022/11/13 05:27:51;;;;;;;2.22;1.52;;;18.10;73.80;;;;;;6080111;23;20207;-83
2022/11/13 05:30:51;;;;;;;2.58;1.42;;;18.10;73.90;;;;;;6129338;23;20194;-84
2022/11/13 05:33:17;;;;;;;2.13;1.38;;;18.10;74.10;;;;;;6233149;22;20152;-83
2022/11/13 05:35:43;;;;;;;1.58;1.25;;;18.20;73.80;;;;;;6105289;23;20178;-83
2022/11/13 05:38:19;;;;;;;3.13;1.42;;;18.10;74.00;;;;;;6104730;23;20167;-84
2022/11/13 05:40:51;;;;;;;2.50;1.77;;;18.10;74.30;;;;;;6103973;23;20216;-83
2022/11/13 05:43:21;;;;;;;2.15;1.77;;;18.10;74.20;;;;;;6231067;23;20157;-84
2022/11/13 05:46:03;;;;;;;2.85;1.50;;;18.10;74.00;;;;;;6080084;23;20162;-83
2022/11/13 05:49:03;;;;;;;1.80;1.45;;;18.10;74.00;;;;;;6080350;23;20512;-86
2022/11/13 05:51:38;;;;;;;2.22;1.35;;;18.10;73.60;;;;;;6105719;23;20152;-83
2022/11/13 05:54:11;;;;;;;2.40;1.50;;;18.10;73.90;;;;;;6080708;23;20162;-83
2022/11/13 05:57:08;;;;;;;1.60;1.30;;;18.10;74.10;;;;;;6104705;23;20202;-84
2022/11/13 05:59:43;;;;;;;1.73;1.38;;;18.10;73.80;;;;;;6231184;23;20152;-84
2022/11/13 06:02:16;;;;;;;2.45;1.85;;;18.10;74.00;;;;;;6104007;23;20147;-84
2022/11/13 06:04:53;;;;;;;2.00;1.45;;;18.10;73.40;;;;;;6104827;23;20152;-84
2022/11/13 06:07:43;;;;;;;3.22;1.52;;;18.10;74.00;;;;;;6104828;23;20251;-85
2022/11/13 06:10:26;;;;;;;2.13;1.35;;;18.10;73.90;;;;;;6104265;23;20235;-85
2022/11/13 06:12:57;;;;;;;1.73;1.50;;;18.10;74.10;;;;;;6103277;23;20629;-85
2022/11/13 06:15:35;;;;;;;2.45;1.30;;;18.10;74.20;;;;;;6102118;23;20155;-81
2022/11/13 06:18:21;;;;;;;2.25;1.50;;;18.10;73.90;;;;;;6103356;23;20183;-82
2022/11/13 06:21:10;;;;;;;1.65;1.50;;;18.10;73.90;;;;;;6080747;23;20269;-81
2022/11/13 06:23:42;;;;;;;1.83;1.30;;;18.10;73.80;;;;;;6078042;23;20244;-83
2022/11/13 06:26:10;;;;;;;2.35;1.50;;;18.10;74.10;;;;;;6077241;23;20157;-84
2022/11/13 06:28:43;;;;;;;1.83;1.40;;;18.10;73.60;;;;;;6102464;23;20169;-84
2022/11/13 06:31:18;;;;;;;3.05;1.45;;;18.10;74.10;;;;;;6075324;23;20183;-83
2022/11/13 06:33:50;;;;;;;2.03;1.40;;;18.10;74.10;;;;;;6076395;23;20157;-83
2022/11/13 06:36:28;;;;;;;2.22;1.20;;;18.10;74.00;;;;;;6101840;23;20206;-83
2022/11/13 06:38:55;;;;;;;2.83;1.48;;;18.10;74.00;;;;;;6227516;23;20153;-84
2022/11/13 06:41:28;;;;;;;1.40;1.25;;;18.10;74.00;;;;;;6076514;23;20201;-83
2022/11/13 06:44:01;;;;;;;1.60;1.50;;;18.00;73.40;;;;;;6225776;23;20228;-83
2022/11/13 06:46:31;;;;;;;1.77;1.35;;;18.10;74.00;;;;;;6103484;23;20149;-84
2022/11/13 06:49:01;;;;;;;2.30;1.60;;;18.10;73.90;;;;;;6079037;23;20189;-84
2022/11/13 06:51:31;;;;;;;2.10;1.63;;;18.10;74.00;;;;;;6102224;23;20144;-83
2022/11/13 06:54:01;;;;;;;2.58;1.60;;;18.10;73.90;;;;;;6077000;23;20153;-86
2022/11/13 06:56:31;;;;;;;2.53;1.38;;;18.10;74.00;;;;;;6078399;23;20152;-85
2022/11/13 06:58:57;;;;;;;1.88;1.20;;;18.00;73.90;;;;;;6099765;23;20164;-84
2022/11/13 07:01:31;;;;;;;2.15;1.50;;;18.10;73.90;;;;;;6075737;23;20276;-83
2022/11/13 07:04:01;;;;;;;1.45;1.27;;;18.10;73.70;;;;;;6099259;23;20136;-83
2022/11/13 07:06:29;;;;;;;1.98;1.55;;;18.10;73.70;;;;;;6099095;23;20133;-82
2022/11/13 07:09:06;;;;;;;1.95;1.27;;;18.10;73.90;;;;;;6075767;23;20175;-83
2022/11/13 07:11:40;;;;;;;1.50;1.23;;;18.10;73.50;;;;;;6074441;23;20156;-87
2022/11/13 07:14:11;;;;;;;1.77;1.42;;;18.10;74.70;;;;;;6167965;23;20153;-82
2022/11/13 07:16:48;;;;;;;2.15;1.35;;;18.10;73.60;;;;;;6068696;23;20153;-84
2022/11/13 07:19:21;;;;;;;2.83;1.35;;;18.00;73.60;;;;;;5997305;23;20187;-86
2022/11/13 07:21:47;;;;;;;3.05;1.50;;;18.10;73.60;;;;;;6041696;23;20235;-84
2022/11/13 07:24:17;;;;;;;1.88;1.40;;;18.10;74.00;;;;;;6025877;23;20157;-84
2022/11/13 07:27:07;;;;;;;2.22;1.50;;;18.10;73.60;;;;;;6027136;23;20145;-87
2022/11/13 07:29:42;;;;;;;1.95;1.63;;;18.10;73.80;;;;;;6135507;23;20194;-84
2022/11/13 07:32:15;;;;;;;1.40;1.30;;;18.10;73.40;;;;;;6087003;23;20151;-84
2022/11/13 07:34:48;;;;;;;2.17;1.55;;;18.10;73.50;;;;;;6086454;23;20157;-84
2022/11/13 07:37:20;;;;;;;2.20;1.50;;;18.10;73.60;;;;;;6087237;23;20186;-84
2022/11/13 07:39:46;;;;;;;2.33;1.50;;;18.10;73.60;;;;;;6115556;23;20163;-86
2022/11/13 07:42:18;;;;;;;2.13;1.33;;;18.10;73.60;;;;;;6137320;23;20147;-83
2022/11/13 07:44:46;;;;;;;1.50;1.38;;;18.10;73.70;;;;;;6172039;23;20147;-84
2022/11/13 07:47:15;;;;;;;1.58;1.13;;;18.10;73.60;;;;;;6165916;23;20142;-84
2022/11/13 07:49:51;;;;;;;1.73;1.40;;;18.10;73.50;;;;;;6168777;23;20229;-83
2022/11/13 07:52:20;;;;;;;1.88;1.50;;;18.10;73.40;;;;;;6146933;23;20158;-84
2022/11/13 07:55:00;;;;;;;1.75;1.50;;;18.10;73.10;;;;;;6164633;23;20158;-84
2022/11/13 07:57:26;;;;;;;1.73;1.58;;;18.20;73.40;;;;;;6173622;23;20147;-84
2022/11/13 07:59:52;;;;;;;3.40;1.40;;;18.10;73.20;;;;;;6173347;23;20151;-83
2022/11/13 08:02:18;;;;;;;1.95;1.30;;;18.10;73.00;;;;;;6171173;23;20147;-84
2022/11/13 08:04:53;;;;;;;3.10;1.63;;;18.10;73.00;;;;;;6173311;23;20143;-85
2022/11/13 08:07:28;;;;;;;1.60;1.30;;;18.20;73.10;;;;;;6166999;23;20695;-85
2022/11/13 08:10:07;;;;;;;4.80;1.40;;;18.20;73.10;;;;;;6167450;23;20661;-85
2022/11/13 08:12:40;;;;;;;4.18;1.33;;;18.20;73.10;;;;;;6123491;23;20161;-86
2022/11/13 08:15:09;;;;;;;3.83;1.38;;;18.30;72.90;;;;;;6024917;23;20192;-86
2022/11/13 08:17:45;;;;;;;1.90;1.48;;;18.30;72.70;;;;;;6001124;23;20154;-85
2022/11/13 08:20:12;;;;;;;2.55;1.42;;;18.40;72.70;;;;;;6026621;23;20177;-84
2022/11/13 08:22:40;;;;;;;2.47;1.40;;;18.30;72.00;;;;;;6069043;23;20196;-84
2022/11/13 08:25:08;;;;;;;4.63;1.58;;;18.40;71.40;;;;;;6059639;23;20145;-85
2022/11/13 08:27:34;;;;;;;3.53;1.60;;;18.40;71.60;;;;;;6083031;23;20149;-84
2022/11/13 08:30:05;;;;;;;3.15;1.40;;;18.40;71.60;;;;;;6079261;23;20176;-84
2022/11/13 08:32:31;;;;;;;2.55;1.20;;;18.40;71.00;;;;;;6058238;23;20226;-85
2022/11/13 08:34:57;;;;;;;2.33;1.45;;;18.50;71.00;;;;;;6085631;23;20173;-85
2022/11/13 08:37:23;;;;;;;1.70;1.20;;;18.50;71.10;;;;;;6085828;23;20220;-85
2022/11/13 08:40:09;;;;;;;1.48;1.25;;;18.50;70.50;;;;;;6088393;23;20452;-85
2022/11/13 08:43:19;;;;;;;2.20;1.30;;;18.60;70.30;;;;;;6070503;23;20223;-85
2022/11/13 08:46:32;;;;;;;4.53;1.52;;;18.60;70.20;;;;;;6087885;23;20167;-85
2022/11/13 08:49:13;;;;;;;2.10;1.30;;;18.60;70.70;;;;;;6122106;23;20243;-86
2022/11/13 08:51:39;;;;;;;2.63;1.50;;;18.60;70.60;;;;;;6162397;23;20151;-86
2022/11/13 08:54:11;;;;;;;2.33;1.45;;;18.70;70.70;;;;;;6113647;23;20546;-87
2022/11/13 08:56:57;;;;;;;3.35;1.55;;;18.70;70.40;;;;;;6111465;23;20159;-89
2022/11/13 08:59:23;;;;;;;2.45;1.70;;;18.70;70.50;;;;;;6035029;23;20167;-86
2022/11/13 09:01:49;;;;;;;3.92;1.30;;;18.70;70.10;;;;;;6199541;23;20228;-86
2022/11/13 09:04:15;;;;;;;3.15;1.60;;;18.70;70.60;;;;;;6070840;23;20205;-85
2022/11/13 09:06:58;;;;;;;3.22;1.40;;;18.70;71.00;;;;;;6070362;23;20236;-86
2022/11/13 09:09:33;;;;;;;9.65;1.30;;;18.70;71.10;;;;;;6075816;23;20221;-85
2022/11/13 09:11:59;;;;;;;3.13;1.38;;;18.80;71.10;;;;;;6075541;23;20271;-84
2022/11/13 09:14:30;;;;;;;5.25;1.17;;;18.80;71.20;;;;;;6076622;23;20614;-85
2022/11/13 09:17:06;;;;;;;2.88;1.40;;;18.80;70.90;;;;;;6168132;23;20159;-85
2022/11/13 09:19:31;;;;;;;2.58;1.50;;;18.80;70.50;;;;;;6169767;23;20606;-85
2022/11/13 09:22:00;;;;;;;3.75;1.63;;;18.80;70.50;;;;;;6222244;23;20208;-86
2022/11/13 09:24:45;;;;;;;7.90;1.70;;;18.80;70.60;;;;;;6176603;23;20204;-84
2022/11/13 09:27:19;;;;;;;2.95;1.60;;;18.80;71.20;;;;;;6160612;23;20157;-85
2022/11/13 09:30:18;;;;;;;2.50;1.70;;;18.80;70.60;;;;;;6171796;23;20189;-84
2022/11/13 09:32:56;;;;;;;5.97;1.65;;;18.90;70.70;;;;;;6156099;23;20191;-86
2022/11/13 09:35:33;;;;;;;2.13;1.60;;;18.90;70.50;;;;;;6264673;22;20234;-86
2022/11/13 09:38:25;;;;;;;4.90;1.40;;;18.80;70.50;;;;;;6114304;23;20150;-85
2022/11/13 09:41:05;;;;;;;3.53;1.83;;;18.90;70.50;;;;;;6101610;23;20155;-86
2022/11/13 09:43:41;;;;;;;3.33;1.40;;;18.90;70.40;;;;;;6135779;23;20155;-85
2022/11/13 09:46:56;;;;;;;1.77;1.13;;;18.90;70.30;;;;;;6113339;23;20207;-85
2022/11/13 09:50:44;;;;;;;4.72;1.55;;;18.90;70.60;;;;;;6054181;23;20216;-85
2022/11/13 09:52:45;;;;;;;2.53;1.50;;;18.90;70.70;;;;;;6131394;23;20218;-83
2022/11/13 09:55:22;;;;;;;4.63;1.25;;;18.90;70.70;;;;;;6111846;23;20431;-83
2022/11/13 09:58:25;;;;;;;6.68;1.40;;;18.80;70.70;;;;;;6144504;23;20154;-84
2022/11/13 10:01:00;;;;;;;3.25;1.38;;;18.90;70.70;;;;;;6021261;23;20157;-84
2022/11/13 10:03:57;;;;;;;1.92;1.38;;;19.00;70.90;;;;;;6041798;23;20169;-85
2022/11/13 10:06:42;;;;;;;4.18;1.52;;;18.90;70.90;;;;;;6041501;23;20186;-85
2022/11/13 10:10:17;;;;;;;6.10;1.83;;;18.90;71.30;;;;;;6025477;23;20182;-86
2022/11/13 10:12:35;;;;;;;8.80;1.48;;;18.90;71.20;;;;;;5993408;23;20219;-83
2022/11/13 10:15:18;;;;;;;5.93;1.40;;;18.90;71.30;;;;;;5963591;23;20295;-85
2022/11/13 10:18:05;;;;;;;6.20;1.65;;;18.90;71.00;;;;;;5986448;24;20151;-83
2022/11/13 10:20:38;;;;;;;2.85;1.45;;;18.80;70.90;;;;;;5988839;24;20226;-82
2022/11/13 10:23:20;;;;;;;4.90;1.50;;;18.80;71.20;;;;;;6013104;23;20210;-84
2022/11/13 10:25:59;;;;;;;8.20;1.73;;;18.90;71.30;;;;;;5995069;23;20586;-84
2022/11/13 10:28:39;;;;;;;6.13;1.67;;;19.00;71.00;;;;;;6092543;23;20662;-84
2022/11/13 10:31:10;;;;;;;2.95;1.27;;;18.80;70.90;;;;;;6018408;23;20154;-83
2022/11/13 10:33:40;;;;;;;3.90;1.60;;;18.90;71.40;;;;;;5996250;23;20218;-84
2022/11/13 10:36:35;;;;;;;3.75;1.55;;;18.80;71.90;;;;;;5996171;23;20583;-83
2022/11/13 10:39:12;;;;;;;3.28;1.38;;;18.80;71.10;;;;;;6021184;23;20198;-85
2022/11/13 10:41:56;;;;;;;4.70;1.90;;;18.90;71.00;;;;;;5969995;24;20159;-83
2022/11/13 10:44:27;;;;;;;3.63;1.50;;;18.80;71.20;;;;;;6000854;23;20161;-83
2022/11/13 10:47:22;;;;;;;4.20;1.50;;;18.80;71.40;;;;;;6047583;23;20154;-84
2022/11/13 10:49:49;;;;;;;3.20;1.30;;;18.80;71.10;;;;;;6047519;23;20184;-84
2022/11/13 10:52:18;;;;;;;2.45;1.60;;;18.80;71.10;;;;;;6045793;23;20610;-85
2022/11/13 10:54:49;;;;;;;5.53;1.80;;;18.90;71.10;;;;;;6046396;23;20526;-84
2022/11/13 10:57:34;;;;;;;5.03;1.50;;;18.80;71.70;;;;;;6022430;23;20718;-84
2022/11/13 11:00:01;;;;;;;4.55;1.42;;;18.80;71.10;;;;;;5999854;23;20163;-85
2022/11/13 11:02:31;;;;;;;3.25;1.40;;;18.80;71.10;;;;;;5960022;23;20214;-85
2022/11/13 11:05:04;;;;;;;4.75;1.50;;;18.80;71.10;;;;;;6006861;23;20163;-84
2022/11/13 11:07:37;;;;;;;5.57;1.55;;;18.80;71.20;;;;;;6039612;23;20238;-86
2022/11/13 11:10:03;;;;;;;3.03;1.60;;;18.80;70.80;;;;;;6039677;23;20228;-85
2022/11/13 11:12:36;;;;;;;3.17;1.45;;;18.80;70.60;;;;;;6063763;23;20234;-84
2022/11/13 11:15:17;;;;;;;3.60;1.50;;;18.90;70.80;;;;;;6010070;23;20469;-84
2022/11/13 11:17:49;;;;;;;7.70;1.67;;;18.90;70.10;;;;;;6051179;23;20153;-84
2022/11/13 11:20:28;;;;;;;1.83;1.40;;;18.90;70.40;;;;;;6097374;23;20145;-84
2022/11/13 11:23:24;;;;;;;4.70;1.52;;;18.90;70.70;;;;;;6098390;23;20207;-84
2022/11/13 11:26:12;;;;;;;5.30;1.50;;;18.90;70.70;;;;;;6080931;23;20160;-84
2022/11/13 11:29:12;;;;;;;2.17;1.40;;;18.90;70.80;;;;;;6098931;23;20246;-83
2022/11/13 11:32:19;;;;;;;4.35;1.50;;;18.90;70.90;;;;;;6100209;23;20145;-84
2022/11/13 11:35:00;;;;;;;5.97;1.60;;;18.90;71.00;;;;;;6099742;23;20191;-85
2022/11/13 11:37:35;;;;;;;2.80;1.40;;;19.00;71.20;;;;;;6098103;23;20133;-85
2022/11/13 11:40:15;;;;;;;9.32;1.63;;;18.90;70.90;;;;;;6018593;23;20153;-87
2022/11/13 11:43:33;;;;;;;4.70;1.40;;;18.90;71.10;;;;;;6117537;23;20169;-85
2022/11/13 11:46:04;;;;;;;8.10;1.52;;;19.00;70.90;;;;;;6003459;23;20154;-86
2022/11/13 11:48:37;;;;;;;5.47;1.65;;;18.90;70.40;;;;;;5992418;23;20241;-83
2022/11/13 11:51:28;;;;;;;5.63;1.70;;;18.90;70.90;;;;;;5990249;23;20161;-86
2022/11/13 11:54:15;;;;;;;4.07;1.30;;;19.00;70.40;;;;;;6012875;23;20515;-86
2022/11/13 11:56:48;;;;;;;4.70;1.40;;;19.00;72.00;;;;;;6012515;23;20187;-85
2022/11/13 11:59:33;;;;;;;5.25;1.40;;;19.00;71.30;;;;;;6110285;23;20162;-87
2022/11/13 12:02:31;;;;;;;3.42;1.50;;;19.00;71.10;;;;;;5992343;23;20158;-86
2022/11/13 12:05:29;;;;;;;4.70;2.03;;;19.00;70.60;;;;;;6119637;23;20158;-85
2022/11/13 12:08:19;;;;;;;5.00;1.23;;;19.00;70.50;;;;;;5995984;23;20165;-85
2022/11/13 12:11:01;;;;;;;4.97;1.60;;;18.90;71.00;;;;;;6021032;23;20164;-84
2022/11/13 12:13:33;;;;;;;5.93;1.60;;;18.90;70.70;;;;;;6172790;23;20153;-86
2022/11/13 12:16:13;;;;;;;6.70;1.50;;;18.90;70.20;;;;;;6069531;23;20596;-85
2022/11/13 12:18:55;;;;;;;7.55;1.55;;;18.90;70.50;;;;;;6169055;23;20244;-84
2022/11/13 12:21:45;;;;;;;4.35;1.35;;;18.90;70.70;;;;;;6169230;23;20183;-84
2022/11/13 12:24:33;;;;;;;4.63;1.50;;;18.90;70.50;;;;;;6097553;23;20196;-84
2022/11/13 12:27:40;;;;;;;4.35;1.63;;;18.90;70.40;;;;;;6157882;23;20179;-86
2022/11/13 12:30:14;;;;;;;2.00;1.55;;;19.00;70.90;;;;;;6097494;23;20666;-85
2022/11/13 12:33:10;;;;;;;2.88;1.50;;;18.90;70.80;;;;;;6199259;23;20152;-83
2022/11/13 12:35:42;;;;;;;6.22;1.30;;;19.00;70.80;;;;;;6098121;23;20156;-85
2022/11/13 12:38:30;;;;;;;4.88;1.55;;;19.00;69.90;;;;;;6050629;23;20188;-85
2022/11/13 12:41:08;;;;;;;4.65;1.70;;;18.90;70.40;;;;;;6093471;23;20212;-85
2022/11/13 12:44:11;;;;;;;4.35;1.50;;;18.90;70.10;;;;;;6076393;23;20192;-84
2022/11/13 12:46:41;;;;;;;5.45;1.70;;;18.90;70.80;;;;;;6172595;23;20218;-86
2022/11/13 12:49:27;;;;;;;5.93;1.45;;;18.90;70.50;;;;;;6099493;23;20603;-87
2022/11/13 12:52:00;;;;;;;2.90;1.13;;;18.90;70.20;;;;;;6154677;23;20135;-85
2022/11/13 12:54:35;;;;;;;3.80;1.67;;;19.00;70.10;;;;;;6106727;23;20151;-85
2022/11/13 12:57:16;;;;;;;7.22;1.35;;;18.90;70.20;;;;;;6078711;23;20155;-85
2022/11/13 13:00:01;;;;;;;4.65;1.50;;;18.90;70.40;;;;;;6153197;23;20140;-85
2022/11/13 13:02:36;;;;;;;4.43;1.45;;;18.90;70.40;;;;;;6135236;23;20159;-88
2022/11/13 13:05:29;;;;;;;2.97;1.50;;;19.00;70.30;;;;;;6209724;23;20154;-85
2022/11/13 13:08:22;;;;;;;2.20;1.40;;;19.00;70.50;;;;;;6157421;23;20598;-85
2022/11/13 13:11:09;;;;;;;4.60;1.50;;;19.00;70.60;;;;;;6260696;22;20155;-85
2022/11/13 13:13:55;;;;;;;6.47;1.48;;;18.90;70.30;;;;;;6261040;22;20158;-85
2022/11/13 13:16:24;;;;;;;2.97;1.50;;;18.90;70.60;;;;;;6206901;23;20159;-85
2022/11/13 13:18:50;;;;;;;3.70;1.42;;;19.00;70.80;;;;;;6209438;23;20232;-86
2022/11/13 13:21:17;;;;;;;3.40;1.40;;;18.90;70.00;;;;;;6131280;23;20151;-84
2022/11/13 13:23:45;;;;;;;5.47;1.90;;;18.90;69.80;;;;;;6154865;23;20135;-86
2022/11/13 13:26:17;;;;;;;3.80;1.48;;;18.90;69.50;;;;;;6131586;23;20151;-85
2022/11/13 13:28:52;;;;;;;4.50;1.48;;;18.90;69.80;;;;;;6133184;23;20526;-85
2022/11/13 13:31:45;;;;;;;2.55;1.40;;;19.00;69.50;;;;;;6131343;23;20142;-85
2022/11/13 13:34:31;;;;;;;3.38;1.70;;;18.90;70.00;;;;;;6159100;23;20185;-86
2022/11/13 13:37:02;;;;;;;3.10;1.30;;;18.90;70.00;;;;;;6158982;23;20136;-86
2022/11/13 13:39:48;;;;;;;1.95;1.23;;;18.90;70.00;;;;;;6159962;23;20148;-85
2022/11/13 13:42:44;;;;;;;3.05;1.25;;;18.80;69.60;;;;;;6155994;23;20544;-85
2022/11/13 13:45:28;;;;;;;4.15;1.48;;;18.90;70.00;;;;;;6157288;23;20139;-85
2022/11/13 13:47:58;;;;;;;2.90;1.50;;;18.90;69.70;;;;;;6132646;23;20147;-84
2022/11/13 13:50:49;;;;;;;3.08;1.40;;;18.90;69.60;;;;;;6084334;23;20234;-85
2022/11/13 13:53:24;;;;;;;4.13;1.23;;;18.90;69.70;;;;;;6132088;23;20148;-86